Media, Pennsylvania
Current Conditions -  °F | °C
As of 8:54 PM on Tuesday 21 Oct 2014 (Local Time) from KPHL Reporting Station
Overcast Overcast  
Wind Chill: 64°   Ceiling: 5000
Heat Index: 64°   Visibility: 10mi
Dew Point: 48°   Wind: 7mph
Humidity: 56%   Direction: 350°N
Pressure: 29.86"   Gusts: NA
Location:  39.92°N, 75.39°W
Report Text: KPHL 220054Z 35006KT 10SM BKN050 OVC080 18/09 A2986 RMK AO2 SLP111 T01780089 $
Loading
Personal Weather Stations






























Interactive Weather Map
Tropical Storm Tracking
New forecast layout! Learn more

10-Day Weather Forecast

Advertisements
Track Severe Weather on mobile